createdAt,value
2022-08-17T00:01:31.438Z,5.33
2022-08-17T00:04:10.888Z,5.63
2022-08-17T00:06:38.434Z,5.07
2022-08-17T00:09:05.643Z,5.47
2022-08-17T00:11:38.345Z,5.37
2022-08-17T00:14:13.684Z,4.87
2022-08-17T00:16:55.376Z,5.27
2022-08-17T00:19:25.834Z,5.30
2022-08-17T00:22:32.277Z,4.80
2022-08-17T00:24:42.876Z,5.63
2022-08-17T00:27:09.393Z,5.00
2022-08-17T00:29:35.856Z,4.87
2022-08-17T00:33:16.006Z,5.13
2022-08-17T00:34:49.861Z,5.40
2022-08-17T00:37:16.628Z,5.13
2022-08-17T00:39:43.180Z,5.73
2022-08-17T00:42:18.564Z,5.60
2022-08-17T00:44:46.028Z,5.27
2022-08-17T00:47:12.508Z,5.30
2022-08-17T00:49:38.988Z,5.70
2022-08-17T00:52:15.311Z,5.33
2022-08-17T00:54:45.000Z,5.03
2022-08-17T00:57:18.490Z,5.00
2022-08-17T01:00:01.513Z,5.40
2022-08-17T01:02:34.398Z,6.23
2022-08-17T01:05:12.527Z,5.57
2022-08-17T01:07:39.285Z,5.90
2022-08-17T01:10:58.881Z,5.23
2022-08-17T01:12:58.065Z,5.87
2022-08-17T01:15:24.613Z,6.03
2022-08-17T01:17:51.147Z,5.90
2022-08-17T01:20:17.828Z,5.83
2022-08-17T01:22:44.426Z,6.20
2022-08-17T01:25:12.579Z,5.10
2022-08-17T01:27:40.545Z,5.33
2022-08-17T01:30:57.108Z,6.03
2022-08-17T01:32:56.857Z,5.30
2022-08-17T01:35:23.443Z,5.27
2022-08-17T01:37:50.005Z,6.07
2022-08-17T01:40:25.550Z,5.50
2022-08-17T01:42:58.496Z,5.80
2022-08-17T01:45:30.374Z,5.80
2022-08-17T01:47:56.983Z,6.10
2022-08-17T01:50:30.581Z,6.50
2022-08-17T01:53:04.174Z,6.40
2022-08-17T01:55:40.882Z,6.37
2022-08-17T01:58:09.706Z,6.70
2022-08-17T02:00:59.797Z,5.67
2022-08-17T02:03:25.220Z,5.70
2022-08-17T02:05:53.190Z,6.63
2022-08-17T02:08:21.408Z,6.00
2022-08-17T02:11:11.611Z,6.10
2022-08-17T02:13:38.343Z,5.93
2022-08-17T02:16:05.515Z,6.47
2022-08-17T02:18:32.111Z,5.50
2022-08-17T02:20:58.686Z,6.10
2022-08-17T02:23:27.765Z,6.20
2022-08-17T02:25:57.642Z,6.40
2022-08-17T02:28:24.111Z,6.90
2022-08-17T02:31:00.690Z,6.40
2022-08-17T02:33:43.067Z,6.20
2022-08-17T02:36:12.143Z,5.90
2022-08-17T02:38:40.585Z,5.90
2022-08-17T02:41:07.921Z,6.20
2022-08-17T02:43:34.897Z,5.93
2022-08-17T02:46:01.485Z,6.73
2022-08-17T02:48:31.611Z,5.53
2022-08-17T02:50:59.815Z,6.07
2022-08-17T02:53:26.683Z,6.30
2022-08-17T02:55:53.636Z,6.40
2022-08-17T02:58:34.332Z,6.33
2022-08-17T03:01:03.667Z,6.50
2022-08-17T03:03:30.209Z,6.50
2022-08-17T03:05:56.682Z,7.20
2022-08-17T03:08:23.382Z,5.90
2022-08-17T03:10:50.427Z,6.07
2022-08-17T03:13:17.283Z,6.77
2022-08-17T03:15:45.366Z,6.20
2022-08-17T03:18:21.929Z,6.27
2022-08-17T03:20:57.528Z,6.00
2022-08-17T03:23:25.583Z,6.87
2022-08-17T03:25:53.889Z,6.37
2022-08-17T03:28:21.740Z,6.27
2022-08-17T03:30:48.931Z,6.47
2022-08-17T03:33:16.190Z,5.70
2022-08-17T03:35:43.109Z,6.30
2022-08-17T03:38:11.293Z,6.20
2022-08-17T03:40:56.624Z,6.20
2022-08-17T03:43:27.638Z,6.40
2022-08-17T03:46:27.689Z,6.13
2022-08-17T03:49:14.163Z,6.00
2022-08-17T03:51:59.105Z,6.03
2022-08-17T03:54:43.863Z,6.53
2022-08-17T03:57:11.094Z,6.10
2022-08-17T03:59:38.636Z,6.27
2022-08-17T04:02:27.600Z,6.10
2022-08-17T04:04:54.590Z,5.00
2022-08-17T04:07:23.736Z,6.40
2022-08-17T04:09:50.720Z,6.43
2022-08-17T04:12:19.526Z,6.37
2022-08-17T04:14:52.162Z,5.90
2022-08-17T04:17:26.977Z,5.53
2022-08-17T04:19:54.801Z,6.07
2022-08-17T04:22:32.656Z,5.53
2022-08-17T04:25:17.715Z,6.20
2022-08-17T04:27:44.279Z,5.80
2022-08-17T04:30:11.910Z,5.60
2022-08-17T04:33:06.131Z,5.40
2022-08-17T04:35:46.244Z,5.80
2022-08-17T04:38:17.492Z,6.87
2022-08-17T04:41:04.036Z,5.87
2022-08-17T04:43:32.554Z,6.40
2022-08-17T04:46:02.157Z,6.30
2022-08-17T04:48:36.574Z,8.40
2022-08-17T04:51:13.617Z,9.70
2022-08-17T04:53:44.108Z,6.00
2022-08-17T04:56:16.577Z,5.53
2022-08-17T04:58:50.338Z,5.17
2022-08-17T05:01:24.090Z,5.90
2022-08-17T05:03:53.834Z,5.60
2022-08-17T05:06:20.968Z,5.50
2022-08-17T05:08:47.632Z,6.37
2022-08-17T05:11:14.926Z,6.53
2022-08-17T05:13:41.457Z,6.13
2022-08-17T05:16:09.091Z,6.80
2022-08-17T05:18:37.165Z,6.00
2022-08-17T05:21:03.787Z,6.07
2022-08-17T05:23:41.769Z,5.63
2022-08-17T05:26:26.457Z,6.20
2022-08-17T05:29:02.478Z,6.73
2022-08-17T05:31:30.748Z,5.30
2022-08-17T05:33:58.153Z,5.20
2022-08-17T05:36:42.080Z,5.23
2022-08-17T05:39:16.725Z,5.23
2022-08-17T05:41:45.408Z,4.80
2022-08-17T05:44:11.905Z,5.20
2022-08-17T05:46:43.416Z,4.97
2022-08-17T05:49:22.476Z,4.93
2022-08-17T05:52:04.187Z,4.80
2022-08-17T05:54:57.046Z,5.20
2022-08-17T05:57:56.267Z,4.87
2022-08-17T06:00:31.381Z,4.80
2022-08-17T06:03:02.738Z,4.80
2022-08-17T06:05:38.313Z,5.60
2022-08-17T06:08:10.980Z,5.30
2022-08-17T06:11:02.580Z,5.60
2022-08-17T06:13:53.337Z,5.53
2022-08-17T06:16:34.066Z,5.13
2022-08-17T06:19:12.071Z,6.50
2022-08-17T06:21:43.550Z,5.50
2022-08-17T06:24:35.878Z,5.10
2022-08-17T06:27:20.284Z,5.07
2022-08-17T06:29:46.745Z,5.57
2022-08-17T06:32:14.327Z,5.10
2022-08-17T06:34:43.618Z,5.10
2022-08-17T06:37:10.127Z,4.47
2022-08-17T06:40:01.515Z,5.63
2022-08-17T06:42:54.982Z,6.33
2022-08-17T06:45:35.927Z,5.23
2022-08-17T06:48:12.888Z,5.70
2022-08-17T06:50:46.533Z,4.77
2022-08-17T06:53:23.411Z,4.43
2022-08-17T06:56:06.149Z,4.37
2022-08-17T06:58:35.625Z,4.90
2022-08-17T07:01:09.141Z,5.00
2022-08-17T07:03:46.066Z,5.23
2022-08-17T07:06:19.792Z,5.00
2022-08-17T07:49:56.800Z,8.87
2022-08-17T07:52:51.439Z,8.57
2022-08-17T07:55:31.076Z,8.67
2022-08-17T07:57:59.457Z,9.37
2022-08-17T08:00:32.102Z,8.90
2022-08-17T08:03:19.176Z,9.47
2022-08-17T08:05:57.565Z,9.50
2022-08-17T08:08:37.333Z,8.77
2022-08-17T08:11:17.788Z,9.03
2022-08-17T08:13:45.647Z,9.40
2022-08-17T08:16:15.138Z,8.10
2022-08-17T08:18:55.842Z,10.17
2022-08-17T08:21:29.174Z,11.10
2022-08-17T08:24:00.320Z,9.80
2022-08-17T08:26:32.563Z,9.60
2022-08-17T08:29:23.651Z,9.13
2022-08-17T08:31:53.366Z,9.73
2022-08-17T08:35:00.940Z,10.13
2022-08-17T08:37:57.706Z,10.47
2022-08-17T08:41:11.917Z,8.60
2022-08-17T08:44:17.080Z,10.40
2022-08-17T08:46:59.870Z,10.23
2022-08-17T08:50:05.046Z,9.30
2022-08-17T08:52:50.373Z,9.20
2022-08-17T08:55:26.045Z,10.43
2022-08-17T08:58:42.019Z,17.20
2022-08-17T09:01:39.372Z,10.80
2022-08-17T09:04:50.198Z,9.60
2022-08-17T09:07:50.355Z,10.37
2022-08-17T09:10:30.593Z,10.00
2022-08-17T09:13:28.676Z,9.40
2022-08-17T09:16:19.570Z,9.00
2022-08-17T09:19:00.123Z,9.90
2022-08-17T09:21:54.474Z,9.50
2022-08-17T09:24:48.888Z,9.53
2022-08-17T09:27:19.575Z,10.30
2022-08-17T09:29:50.322Z,9.83
2022-08-17T09:32:25.408Z,9.60
2022-08-17T09:34:59.949Z,9.83
2022-08-17T09:37:29.453Z,9.20
2022-08-17T09:40:14.165Z,9.77
2022-08-17T09:43:12.596Z,9.97
2022-08-17T09:45:57.103Z,9.30
2022-08-17T09:48:35.750Z,9.90
2022-08-17T09:51:24.439Z,10.00
2022-08-17T09:53:51.471Z,9.50
2022-08-17T09:57:06.029Z,9.30
2022-08-17T09:59:54.976Z,10.10
2022-08-17T10:02:43.276Z,11.50
2022-08-17T10:05:18.023Z,10.90
2022-08-17T10:07:57.351Z,10.93
2022-08-17T10:10:39.910Z,11.03
2022-08-17T10:13:39.505Z,11.20
2022-08-17T10:16:38.224Z,11.30
2022-08-17T10:19:30.669Z,11.60
2022-08-17T10:22:35.064Z,10.97
2022-08-17T10:25:24.864Z,11.50
2022-08-17T10:28:05.101Z,11.30
2022-08-17T10:30:34.951Z,11.50
2022-08-17T10:33:15.908Z,11.00
2022-08-17T10:35:57.496Z,11.20
2022-08-17T10:38:30.265Z,11.97
2022-08-17T10:40:59.587Z,11.23
2022-08-17T10:44:37.505Z,12.00
2022-08-17T10:47:01.416Z,11.30
2022-08-17T10:49:39.188Z,11.97
2022-08-17T10:52:20.616Z,15.17
2022-08-17T10:54:57.933Z,14.50
2022-08-17T10:57:31.718Z,14.57
2022-08-17T11:00:00.402Z,14.30
2022-08-17T11:02:40.647Z,14.40
2022-08-17T11:05:44.071Z,14.60
2022-08-17T11:08:32.556Z,14.13
2022-08-17T11:11:38.402Z,13.57
2022-08-17T11:14:42.589Z,14.70
2022-08-17T11:17:21.773Z,14.60
2022-08-17T11:20:00.476Z,13.67
2022-08-17T11:23:04.530Z,15.30
2022-08-17T11:25:50.901Z,13.90
2022-08-17T11:28:19.682Z,14.37
2022-08-17T11:30:54.968Z,17.40
2022-08-17T11:33:34.045Z,16.90
2022-08-17T11:36:18.153Z,14.80
2022-08-17T11:38:52.448Z,15.47
2022-08-17T11:41:27.366Z,16.47
2022-08-17T11:44:31.100Z,17.10
2022-08-17T11:47:28.369Z,16.60
2022-08-17T11:50:45.305Z,32.13
2022-08-17T11:53:39.567Z,19.40
2022-08-17T11:56:28.964Z,17.73
2022-08-17T11:58:56.333Z,17.20
2022-08-17T12:01:22.718Z,17.70
2022-08-17T12:03:58.838Z,19.43
2022-08-17T12:06:30.520Z,20.10
2022-08-17T12:09:10.480Z,18.03
2022-08-17T12:12:12.554Z,18.13
2022-08-17T12:15:09.459Z,18.10
2022-08-17T12:17:40.794Z,19.00
2022-08-17T12:20:39.986Z,18.60
2022-08-17T12:23:25.576Z,18.30
2022-08-17T12:26:07.206Z,19.37
2022-08-17T12:28:38.702Z,20.97
2022-08-17T12:31:21.994Z,17.47
2022-08-17T12:33:49.966Z,21.00
2022-08-17T12:36:25.207Z,19.20
2022-08-17T12:39:13.697Z,18.97
2022-08-17T12:41:47.507Z,19.17
2022-08-17T12:44:29.272Z,20.40
2022-08-17T12:47:21.825Z,19.20
2022-08-17T12:49:52.219Z,20.47
2022-08-17T12:52:32.791Z,22.30
2022-08-17T12:55:06.883Z,22.50
2022-08-17T12:57:43.768Z,22.40
2022-08-17T13:00:37.949Z,24.00
2022-08-17T13:03:07.730Z,24.40
2022-08-17T13:05:53.582Z,24.40
2022-08-17T13:08:26.053Z,24.07
2022-08-17T13:11:02.896Z,27.60
2022-08-17T13:13:32.627Z,25.30
2022-08-17T13:16:03.069Z,23.20
2022-08-17T13:18:46.561Z,25.90
2022-08-17T13:21:19.390Z,24.77
2022-08-17T13:24:04.255Z,21.50
2022-08-17T13:26:35.644Z,21.43
2022-08-17T13:29:06.243Z,24.00
2022-08-17T13:31:51.976Z,22.30
2022-08-17T13:34:25.459Z,22.43
2022-08-17T13:37:19.027Z,23.20
2022-08-17T13:39:48.288Z,22.73
2022-08-17T13:42:33.520Z,22.00
2022-08-17T13:45:36.483Z,25.13
2022-08-17T13:48:23.974Z,25.33
2022-08-17T13:50:56.684Z,26.90
2022-08-17T13:53:28.250Z,25.63
2022-08-17T13:56:33.489Z,26.43
2022-08-17T13:59:04.492Z,27.60
2022-08-17T14:01:39.407Z,29.67
2022-08-17T14:04:09.258Z,30.30
2022-08-17T14:06:54.128Z,30.37
2022-08-17T14:09:26.167Z,28.43
2022-08-17T14:11:55.424Z,28.73
2022-08-17T14:14:23.239Z,31.00
2022-08-17T14:16:51.190Z,28.70
2022-08-17T14:19:18.118Z,30.10
2022-08-17T14:21:46.449Z,27.67
2022-08-17T14:24:20.175Z,31.23
2022-08-17T14:26:46.794Z,31.27
2022-08-17T14:29:15.579Z,28.00
2022-08-17T14:31:42.455Z,29.93
2022-08-17T14:34:15.425Z,31.00
2022-08-17T14:36:48.286Z,30.90
2022-08-17T14:39:16.884Z,29.90
2022-08-17T14:41:43.647Z,34.40
2022-08-17T14:44:13.445Z,35.83
2022-08-17T14:46:41.742Z,32.30
2022-08-17T14:49:11.809Z,31.87
2022-08-17T14:51:43.515Z,29.50
2022-08-17T14:54:11.491Z,27.93
2022-08-17T14:57:23.234Z,28.63
2022-08-17T14:59:44.776Z,31.93
2022-08-17T15:02:11.905Z,27.20
2022-08-17T15:04:43.413Z,27.30
2022-08-17T15:07:12.144Z,28.80
2022-08-17T15:09:39.027Z,26.40
2022-08-17T15:12:06.679Z,25.50
2022-08-17T15:14:36.540Z,24.37
2022-08-17T15:17:03.933Z,28.83
2022-08-17T15:19:30.539Z,27.50
2022-08-17T15:21:57.128Z,28.00
2022-08-17T15:24:23.601Z,29.13
2022-08-17T15:26:50.146Z,27.87
2022-08-17T15:29:16.642Z,26.40
2022-08-17T15:31:43.276Z,25.30
2022-08-17T15:34:09.805Z,20.67
2022-08-17T15:36:37.013Z,22.83
2022-08-17T15:39:05.387Z,18.97
2022-08-17T15:41:32.467Z,25.30
2022-08-17T15:43:59.035Z,25.40
2022-08-17T15:46:26.493Z,28.57
2022-08-17T15:48:58.959Z,24.70
2022-08-17T15:51:34.768Z,25.67
2022-08-17T15:54:18.750Z,24.00
2022-08-17T15:56:48.766Z,29.00
2022-08-17T15:59:15.384Z,26.33
2022-08-17T16:03:13.251Z,25.40
2022-08-17T16:04:30.675Z,28.17
2022-08-17T16:06:58.752Z,30.17
2022-08-17T16:09:25.258Z,28.00
2022-08-17T16:11:51.903Z,27.87
2022-08-17T16:14:22.339Z,29.70
2022-08-17T16:16:50.606Z,28.77
2022-08-17T16:19:17.086Z,30.20
2022-08-17T16:21:43.627Z,28.63
2022-08-17T16:24:13.718Z,29.50
2022-08-17T16:26:42.425Z,29.30
2022-08-17T16:29:09.042Z,26.30
2022-08-17T16:31:37.535Z,26.20
2022-08-17T16:34:17.411Z,24.43
2022-08-17T16:36:54.996Z,23.37
2022-08-17T16:39:29.022Z,20.20
2022-08-17T16:41:56.514Z,23.00
2022-08-17T16:44:24.026Z,21.70
2022-08-17T16:46:50.709Z,21.70
2022-08-17T16:49:35.315Z,22.37
2022-08-17T16:52:03.912Z,23.50
2022-08-17T16:54:30.404Z,24.43
2022-08-17T16:56:56.980Z,22.83
2022-08-17T16:59:30.866Z,25.47
2022-08-17T17:02:04.747Z,21.67
2022-08-17T17:04:35.153Z,22.13
2022-08-17T17:07:42.656Z,23.90
2022-08-17T17:10:22.983Z,22.40
2022-08-17T17:13:03.781Z,20.40
2022-08-17T17:15:47.217Z,20.73
2022-08-17T17:18:15.730Z,18.50
2022-08-17T17:20:58.731Z,17.30
2022-08-17T17:23:48.285Z,17.37
2022-08-17T17:26:34.258Z,15.50
2022-08-17T17:29:05.126Z,14.73
2022-08-17T17:31:50.962Z,13.47
2022-08-17T17:34:18.404Z,14.33
2022-08-17T17:36:52.043Z,13.97
2022-08-17T17:39:44.152Z,13.30
2022-08-17T17:42:16.625Z,13.13
2022-08-17T17:45:03.912Z,12.83
2022-08-17T17:47:31.767Z,12.17
2022-08-17T17:50:01.353Z,11.67
2022-08-17T17:52:46.256Z,12.60
2022-08-17T17:55:15.658Z,12.03
2022-08-17T17:58:24.425Z,12.10
2022-08-17T18:01:09.683Z,10.77
2022-08-17T18:03:42.038Z,12.20
2022-08-17T18:06:10.323Z,10.80
2022-08-17T18:09:03.658Z,11.10
2022-08-17T18:11:54.139Z,11.40
2022-08-17T18:14:35.484Z,10.53
2022-08-17T18:17:02.241Z,14.70
2022-08-17T18:19:30.874Z,11.07
2022-08-17T18:22:13.132Z,10.03
2022-08-17T18:24:44.798Z,9.60
2022-08-17T18:27:23.356Z,9.50
2022-08-17T18:29:53.387Z,9.93
2022-08-17T18:32:34.495Z,10.00
2022-08-17T18:35:16.278Z,10.93
2022-08-17T18:37:51.440Z,10.00
2022-08-17T18:40:18.514Z,22.53
2022-08-17T18:42:56.029Z,14.73
2022-08-17T18:45:42.508Z,9.73
2022-08-17T18:48:27.520Z,10.90
2022-08-17T18:51:01.243Z,16.53
2022-08-17T18:53:34.497Z,12.80
2022-08-17T18:56:40.965Z,28.30
2022-08-17T18:59:23.614Z,14.70
2022-08-17T19:01:59.199Z,10.90
2022-08-17T19:04:32.778Z,12.80
2022-08-17T19:07:04.405Z,14.80
2022-08-17T19:09:36.024Z,14.80
2022-08-17T19:12:08.109Z,15.17
2022-08-17T19:14:35.816Z,11.43
2022-08-17T19:17:30.183Z,12.67
2022-08-17T19:20:17.588Z,11.13
2022-08-17T19:22:46.987Z,18.00
2022-08-17T19:25:23.156Z,17.10
2022-08-17T19:28:03.007Z,50.97
2022-08-17T19:30:30.278Z,12.30
2022-08-17T19:32:58.367Z,11.17
2022-08-17T19:35:34.115Z,11.80
2022-08-17T19:38:18.939Z,16.50
2022-08-17T19:41:00.675Z,11.20
2022-08-17T19:43:55.546Z,12.77
2022-08-17T19:46:26.089Z,11.97
2022-08-17T19:49:03.566Z,12.57
2022-08-17T19:51:46.175Z,14.20
2022-08-17T19:54:25.523Z,51.13
2022-08-17T19:57:01.698Z,21.27
2022-08-17T19:59:51.397Z,18.17
2022-08-17T20:02:37.458Z,13.70
2022-08-17T20:05:18.932Z,13.60
2022-08-17T20:08:00.572Z,12.93
2022-08-17T20:10:38.554Z,13.00
2022-08-17T20:13:14.990Z,13.00
2022-08-17T20:15:43.810Z,20.60
2022-08-17T20:18:50.796Z,26.63
2022-08-17T20:21:39.131Z,14.77
2022-08-17T20:24:44.758Z,14.67
2022-08-17T20:27:47.215Z,14.23
2022-08-17T20:30:40.779Z,14.97
2022-08-17T20:33:23.232Z,14.90
2022-08-17T20:36:11.912Z,19.80
2022-08-17T20:38:46.361Z,15.70
2022-08-17T20:41:17.131Z,15.93
2022-08-17T20:43:50.914Z,14.63
2022-08-17T20:46:35.607Z,14.00
2022-08-17T20:49:08.267Z,13.43
2022-08-17T20:52:02.537Z,15.07
2022-08-17T20:54:38.536Z,17.30
2022-08-17T20:57:13.723Z,16.53
2022-08-17T20:59:43.461Z,15.17
2022-08-17T21:02:19.943Z,16.43
2022-08-17T21:04:47.261Z,18.60
2022-08-17T21:07:48.550Z,17.53
2022-08-17T21:10:26.057Z,15.83
2022-08-17T21:13:00.115Z,15.37
2022-08-17T21:15:42.915Z,15.20
2022-08-17T21:18:27.985Z,16.90
2022-08-17T21:21:16.954Z,17.23
2022-08-17T21:23:52.892Z,16.93
2022-08-17T21:27:18.108Z,15.83
2022-08-17T21:30:10.129Z,17.40
2022-08-17T21:32:40.397Z,17.03
2022-08-17T21:35:12.344Z,20.67
2022-08-17T21:37:39.135Z,18.23
2022-08-17T21:40:17.975Z,19.33
2022-08-17T21:43:20.028Z,18.13
2022-08-17T21:45:55.698Z,17.93
2022-08-17T21:48:24.961Z,18.17
2022-08-17T21:51:03.713Z,18.97
2022-08-17T21:53:39.305Z,17.50
2022-08-17T21:56:07.254Z,18.73
2022-08-17T21:58:40.004Z,18.97
2022-08-17T22:01:17.195Z,18.47
2022-08-17T22:03:46.869Z,19.73
2022-08-17T22:06:56.658Z,18.07
2022-08-17T22:09:32.747Z,18.80
2022-08-17T22:12:05.310Z,18.07
2022-08-17T22:14:53.118Z,19.23
2022-08-17T22:17:25.050Z,17.43
2022-08-17T22:20:14.428Z,18.73
2022-08-17T22:23:08.573Z,19.80
2022-08-17T22:25:38.156Z,19.87
2022-08-17T22:28:08.186Z,17.40
2022-08-17T22:30:41.085Z,21.07
2022-08-17T22:33:36.416Z,22.37
2022-08-17T22:36:24.673Z,19.47
2022-08-17T22:38:58.131Z,19.40
2022-08-17T22:41:24.555Z,20.57
2022-08-17T22:43:52.415Z,20.90
2022-08-17T22:46:23.818Z,20.37
2022-08-17T22:48:54.925Z,20.60
2022-08-17T22:51:26.215Z,20.17
2022-08-17T22:54:15.313Z,20.20
2022-08-17T22:57:18.617Z,21.97
2022-08-17T22:59:49.342Z,23.40
2022-08-17T23:02:23.867Z,21.10
2022-08-17T23:04:54.347Z,22.80
2022-08-17T23:07:22.853Z,25.53
2022-08-17T23:09:51.047Z,25.10
2022-08-17T23:12:26.316Z,25.50
2022-08-17T23:15:00.488Z,25.10
2022-08-17T23:17:37.197Z,23.50
2022-08-17T23:20:08.399Z,22.20
2022-08-17T23:22:37.942Z,24.77
2022-08-17T23:25:27.043Z,26.30
2022-08-17T23:27:54.440Z,25.30
2022-08-17T23:30:28.505Z,24.17
2022-08-17T23:32:56.513Z,21.33
2022-08-17T23:35:39.683Z,24.07
2022-08-17T23:38:09.463Z,23.70
2022-08-17T23:40:36.248Z,24.07
2022-08-17T23:43:11.509Z,21.97
2022-08-17T23:45:59.589Z,24.60
2022-08-17T23:59:48.715Z,23.20
